Flight Track Log - Related Links

Times and Time Zones

All times are in EDT time to prevent confusion due to time zone crossing. See the CSZ9805 flight status page for this flight to view local times or setup timezone preferences in your user account.

Time Position Orientation Groundspeed Altitude Reporting Facility
EDT Latitude Longitude Course Direction KTS MPH feet Rate Location/Type
Sun 07:14:00 PM 23.3475 114.6606 48° Northeast  Level Estimated
Sun 07:15:00 PM 23.4181 114.7460 48° Northeast  Level Estimated
Sun 07:16:00 PM 23.4886 114.8314 48° Northeast  Level Estimated
Sun 07:17:00 PM 23.5591 114.9169 48° Northeast  Level Estimated
Sun 07:18:00 PM 23.6295 115.0025 48° Northeast  Level Estimated
Sun 07:19:00 PM 23.6999 115.0881 48° Northeast  Level Estimated
Sun 07:20:00 PM 23.7702 115.1739 48° Northeast  Level Estimated
Sun 07:21:00 PM 23.8405 115.2598 48° Northeast  Level Estimated
Sun 07:22:00 PM 23.9107 115.3457 48° Northeast  Level Estimated
Sun 07:23:00 PM 23.9809 115.4318 48° Northeast  Level Estimated
Sun 07:24:00 PM 24.0510 115.5179 48° Northeast  Level Estimated
Sun 07:25:00 PM 24.1211 115.6042 48° Northeast  Level Estimated
Sun 07:26:00 PM 24.1911 115.6905 48° Northeast  Level Estimated
Sun 07:27:00 PM 24.2611 115.7769 48° Northeast  Level Estimated
Sun 07:28:00 PM 24.3310 115.8635 48° Northeast  Level Estimated
Sun 07:29:00 PM 24.4009 115.9501 48° Northeast  Level Estimated
Sun 07:30:00 PM 24.4708 116.0368 48° Northeast  Level Estimated
Sun 07:31:00 PM 24.5406 116.1236 49° Northeast  Level Estimated
Sun 07:32:00 PM 24.6103 116.2105 49° Northeast  Level Estimated
Sun 07:33:00 PM 24.6800 116.2975 49° Northeast  Level Estimated
Sun 07:34:00 PM 24.7496 116.3847 49° Northeast  Level Estimated
Sun 07:35:00 PM 24.8192 116.4719 49° Northeast  Level Estimated
Sun 07:36:00 PM 24.8888 116.5592 49° Northeast  Level Estimated
Sun 07:37:00 PM 24.9582 116.6466 49° Northeast  Level Estimated
Sun 07:38:00 PM 25.0277 116.7341 49° Northeast  Level Estimated
Sun 07:39:00 PM 25.0971 116.8217 49° Northeast  Level Estimated
Sun 07:40:00 PM 25.1664 116.9094 49° Northeast  Level Estimated
Sun 07:41:00 PM 25.2357 116.9972 49° Northeast  Level Estimated
Sun 07:42:00 PM 25.3049 117.0851 49° Northeast  Level Estimated
Sun 07:43:00 PM 25.3741 117.1731 49° Northeast  Level Estimated
Sun 07:44:00 PM 25.4432 117.2612 49° Northeast  Level Estimated
Sun 07:45:00 PM 25.5123 117.3494 49° Northeast  Level Estimated
Sun 07:46:00 PM 25.5813 117.4377 49° Northeast  Level Estimated
Sun 07:47:00 PM 25.6503 117.5261 49° Northeast  Level Estimated
Sun 07:48:00 PM 25.7192 117.6146 49° Northeast  Level Estimated
Sun 07:49:00 PM 25.7880 117.7032 49° Northeast  Level Estimated
Sun 07:50:00 PM 25.8568 117.7919 49° Northeast  Level Estimated
Sun 07:51:00 PM 25.9256 117.8807 49° Northeast  Level Estimated
Sun 07:52:00 PM 25.9943 117.9696 49° Northeast  Level Estimated
Sun 07:53:00 PM 26.0629 118.0586 49° Northeast  Level Estimated
Sun 07:54:00 PM 26.1315 118.1478 49° Northeast  Level Estimated
Sun 07:55:00 PM 26.2001 118.2370 49° Northeast  Level Estimated
Sun 07:56:00 PM 26.2685 118.3263 49° Northeast  Level Estimated
Sun 07:57:00 PM 26.3370 118.4157 50° Northeast  Level Estimated
Sun 07:58:00 PM 26.4053 118.5053 50° Northeast  Level Estimated
Sun 07:59:00 PM 26.4736 118.5949 50° Northeast  Level Estimated
Sun 08:00:00 PM 26.5419 118.6847 50° Northeast  Level Estimated
Sun 08:01:00 PM 26.6101 118.7746 50° Northeast  Level Estimated
Sun 08:02:00 PM 26.6782 118.8645 50° Northeast  Level Estimated
Sun 08:03:00 PM 26.7463 118.9546 50° Northeast  Level Estimated
Sun 08:04:00 PM 26.8144 119.0448 50° Northeast  Level Estimated
Sun 08:05:00 PM 26.8823 119.1351 50° Northeast  Level Estimated
Sun 08:06:00 PM 26.9502 119.2255 50° Northeast  Level Estimated
Sun 08:07:00 PM 27.0181 119.3160 50° Northeast  Level Estimated
Sun 08:08:00 PM 27.0859 119.4066 50° Northeast  Level Estimated
Sun 08:09:00 PM 27.1536 119.4974 50° Northeast  Level Estimated
Sun 08:10:00 PM 27.2213 119.5882 50° Northeast  Level Estimated
Sun 08:11:00 PM 27.2889 119.6792 50° Northeast  Level Estimated
Sun 08:12:00 PM 27.3565 119.7702 50° Northeast  Level Estimated
Sun 08:13:00 PM 27.4240 119.8614 50° Northeast  Level Estimated
Sun 08:14:00 PM 27.4914 119.9527 50° Northeast  Level Estimated
Sun 08:15:00 PM 27.5588 120.0441 50° Northeast  Level Estimated
Sun 08:16:00 PM 27.6262 120.1356 50° Northeast  Level Estimated
Sun 08:17:00 PM 27.6934 120.2272 50° Northeast  Level Estimated
Sun 08:18:00 PM 27.7607 120.3190 50° Northeast  Level Estimated
Sun 08:19:00 PM 27.8278 120.4108 50° Northeast  Level Estimated
Sun 08:20:00 PM 27.8949 120.5028 50° Northeast  Level Estimated
Sun 08:21:00 PM 27.9619 120.5948 50° Northeast  Level Estimated
Sun 08:22:00 PM 28.0289 120.6870 51° Northeast  Level Estimated
Sun 08:23:00 PM 28.0958 120.7794 51° Northeast  Level Estimated
Sun 08:24:00 PM 28.1626 120.8718 51° Northeast  Level Estimated
Sun 08:25:00 PM 28.2294 120.9643 51° Northeast  Level Estimated
Sun 08:26:00 PM 28.2961 121.0570 51° Northeast  Level Estimated
Sun 08:27:00 PM 28.3627 121.1497 51° Northeast  Level Estimated
Sun 08:28:00 PM 28.4293 121.2426 51° Northeast  Level Estimated
Sun 08:29:00 PM 28.4958 121.3356 51° Northeast  Level Estimated
Sun 08:30:00 PM 28.5622 121.4286 51° Northeast  Level Estimated
Sun 08:31:00 PM 28.5622 121.4286 24° Northeast  Level Estimated
Sun 08:32:00 PM 28.5622 121.4286 24° Northeast  Level Estimated
Sun 08:33:00 PM 28.5622 121.4286 24° Northeast  Level Estimated
Sun 08:34:00 PM 28.5622 121.4286 24° Northeast  Level Estimated
Sun 08:35:00 PM 28.5622 121.4286 24° Northeast  Level Estimated
Sun 08:36:00 PM 28.5622 121.4286 24° Northeast  Level Estimated
Sun 08:37:00 PM 28.5622 121.4286 24° Northeast  Level Estimated
Sun 08:38:00 PM 28.5622 121.4286 24° Northeast  Level Estimated
Sun 08:39:00 PM 28.5622 121.4286 24° Northeast  Level Estimated
Sun 08:40:00 PM 28.5622 121.4286 24° Northeast  Level Estimated
Sun 08:41:00 PM 28.5622 121.4286 24° Northeast  Level Estimated
Sun 08:42:00 PM 28.5622 121.4286 24° Northeast  Level Estimated
Sun 08:43:00 PM 28.5622 121.4286 24° Northeast  Level Estimated
Sun 08:44:00 PM 28.5622 121.4286 24° Northeast  Level Estimated
Sun 08:45:00 PM 28.5622 121.4286 24° Northeast  Level Estimated
Sun 08:46:00 PM 28.5622 121.4286 24° Northeast  Level Estimated

Login

Don't have an account? Register now (free) for customized features, flight alerts, and more!